createdAt,value
2023-01-27T00:01:27.284Z,13.52
2023-01-27T00:04:31.021Z,13.23
2023-01-27T00:07:33.377Z,12.68
2023-01-27T00:10:35.488Z,14.55
2023-01-27T00:13:41.580Z,13.27
2023-01-27T00:16:43.531Z,14.00
2023-01-27T00:19:46.197Z,15.25
2023-01-27T00:23:06.883Z,14.07
2023-01-27T00:26:11.941Z,13.52
2023-01-27T00:29:15.961Z,16.67
2023-01-27T00:32:36.660Z,14.88
2023-01-27T00:35:40.230Z,15.70
2023-01-27T00:38:42.483Z,15.73
2023-01-27T00:41:47.690Z,15.00
2023-01-27T00:45:08.956Z,14.55
2023-01-27T00:48:13.850Z,14.02
2023-01-27T00:51:16.552Z,17.08
2023-01-27T00:54:18.693Z,17.02
2023-01-27T00:57:22.184Z,16.75
2023-01-27T01:00:24.472Z,15.93
2023-01-27T01:03:31.688Z,16.50
2023-01-27T01:06:33.703Z,17.33
2023-01-27T01:09:37.095Z,16.52
2023-01-27T01:12:39.228Z,18.10
2023-01-27T01:15:44.357Z,16.67
2023-01-27T01:18:48.547Z,15.88
2023-01-27T01:21:53.292Z,18.33
2023-01-27T01:24:57.059Z,17.80
2023-01-27T01:27:59.352Z,18.50
2023-01-27T01:31:15.386Z,16.35
2023-01-27T01:34:17.630Z,16.67
2023-01-27T01:37:21.453Z,19.05
2023-01-27T01:40:25.674Z,16.58
2023-01-27T01:43:29.557Z,15.07
2023-01-27T01:46:31.598Z,14.73
2023-01-27T01:49:37.196Z,15.25
2023-01-27T01:52:39.822Z,13.73
2023-01-27T01:55:44.176Z,15.02
2023-01-27T01:58:48.911Z,15.32
2023-01-27T02:01:54.692Z,16.00
2023-01-27T02:05:17.050Z,15.57
2023-01-27T02:08:29.423Z,17.02
2023-01-27T02:11:32.427Z,15.23
2023-01-27T02:14:34.744Z,15.57
2023-01-27T02:17:37.933Z,14.85
2023-01-27T02:20:54.486Z,14.63
2023-01-27T02:24:11.008Z,14.73
2023-01-27T02:27:14.531Z,15.20
2023-01-27T02:30:16.935Z,15.30
2023-01-27T02:33:19.120Z,15.93
2023-01-27T02:36:21.122Z,14.65
2023-01-27T02:39:31.392Z,13.60
2023-01-27T02:42:33.508Z,13.05
2023-01-27T02:45:37.272Z,14.88
2023-01-27T02:48:39.362Z,14.02
2023-01-27T02:51:41.809Z,14.68
2023-01-27T02:54:43.900Z,14.00
2023-01-27T02:57:45.935Z,14.02
2023-01-27T03:01:04.763Z,14.02
2023-01-27T03:04:12.030Z,13.00
2023-01-27T03:07:14.345Z,14.73
2023-01-27T03:10:16.656Z,14.27
2023-01-27T03:13:26.427Z,12.50
2023-01-27T03:16:47.413Z,13.98
2023-01-27T03:19:53.426Z,14.77
2023-01-27T03:22:55.992Z,11.68
2023-01-27T03:26:00.878Z,11.18
2023-01-27T03:29:21.896Z,12.13
2023-01-27T03:32:26.573Z,13.63
2023-01-27T03:35:48.736Z,12.05
2023-01-27T03:39:14.110Z,13.65
2023-01-27T03:42:35.054Z,13.88
2023-01-27T03:45:55.839Z,11.10
2023-01-27T03:48:57.928Z,15.27
2023-01-27T03:52:00.456Z,13.95
2023-01-27T03:55:02.677Z,14.52
2023-01-27T03:58:20.852Z,14.10
2023-01-27T04:01:24.455Z,15.48
2023-01-27T04:04:45.264Z,13.25
2023-01-27T04:07:48.455Z,13.18
2023-01-27T04:11:10.359Z,16.95
2023-01-27T04:14:13.387Z,15.75
2023-01-27T04:17:17.966Z,14.10
2023-01-27T04:20:20.055Z,14.32
2023-01-27T04:23:22.176Z,16.67
2023-01-27T04:26:24.984Z,14.85
2023-01-27T04:29:29.380Z,14.45
2023-01-27T04:32:32.681Z,15.50
2023-01-27T04:35:39.055Z,15.80
2023-01-27T04:38:41.360Z,17.73
2023-01-27T04:41:44.090Z,15.25
2023-01-27T04:44:46.784Z,15.90
2023-01-27T04:47:48.820Z,16.60
2023-01-27T04:50:51.016Z,15.88
2023-01-27T04:53:53.709Z,16.45
2023-01-27T04:56:59.032Z,16.33
2023-01-27T05:00:00.987Z,16.40
2023-01-27T05:03:05.384Z,17.70
2023-01-27T05:06:07.688Z,17.65
2023-01-27T05:09:10.416Z,17.58
2023-01-27T05:12:12.665Z,19.15
2023-01-27T05:15:15.050Z,19.42
2023-01-27T05:18:17.249Z,18.08
2023-01-27T05:21:21.933Z,19.35
2023-01-27T05:24:24.012Z,18.98
2023-01-27T05:27:26.309Z,19.13
2023-01-27T05:30:28.397Z,19.17
2023-01-27T05:33:30.652Z,17.50
2023-01-27T05:36:32.781Z,17.95
2023-01-27T05:39:36.140Z,17.45
2023-01-27T05:42:38.855Z,16.48
2023-01-27T05:45:40.880Z,18.48
2023-01-27T05:48:46.905Z,16.95
2023-01-27T05:51:49.051Z,15.02
2023-01-27T05:54:51.304Z,15.35
2023-01-27T05:57:53.365Z,16.10
2023-01-27T06:00:55.671Z,17.10
2023-01-27T06:03:58.603Z,15.73
2023-01-27T06:07:01.737Z,16.90
2023-01-27T06:10:03.994Z,15.93
2023-01-27T06:13:06.106Z,15.50
2023-01-27T06:16:11.138Z,15.00
2023-01-27T06:19:13.385Z,16.20
2023-01-27T06:22:15.594Z,15.35
2023-01-27T06:25:17.628Z,17.25
2023-01-27T06:28:28.895Z,15.13
2023-01-27T06:31:32.052Z,14.98
2023-01-27T06:34:34.579Z,15.23
2023-01-27T06:37:36.953Z,15.93
2023-01-27T06:40:39.251Z,15.88
2023-01-27T06:43:42.382Z,17.10
2023-01-27T06:46:44.823Z,16.33
2023-01-27T06:49:47.144Z,15.23
2023-01-27T06:52:50.037Z,15.65
2023-01-27T06:55:59.766Z,15.00
2023-01-27T06:59:01.855Z,16.55
2023-01-27T07:02:03.810Z,15.30
2023-01-27T07:05:05.926Z,17.08
2023-01-27T07:08:09.250Z,15.07
2023-01-27T07:11:11.518Z,17.80
2023-01-27T07:14:14.153Z,16.10
2023-01-27T07:17:16.374Z,15.00
2023-01-27T07:20:21.362Z,14.68
2023-01-27T07:23:25.252Z,14.77
2023-01-27T07:26:27.499Z,14.63
2023-01-27T07:29:29.773Z,15.43
2023-01-27T07:32:31.929Z,14.27
2023-01-27T07:35:34.076Z,15.20
2023-01-27T07:38:36.991Z,13.90
2023-01-27T07:41:39.062Z,15.13
2023-01-27T07:44:41.113Z,15.52
2023-01-27T07:47:43.161Z,14.05
2023-01-27T07:50:45.284Z,15.85
2023-01-27T07:53:47.382Z,15.38
2023-01-27T07:56:49.411Z,15.63
2023-01-27T07:59:55.790Z,14.57
2023-01-27T08:03:00.880Z,14.85
2023-01-27T08:06:10.713Z,15.50
2023-01-27T08:09:12.852Z,15.57
2023-01-27T08:12:14.967Z,16.08
2023-01-27T08:15:19.144Z,15.05
2023-01-27T08:18:21.304Z,15.85
2023-01-27T08:21:23.414Z,16.95
2023-01-27T08:24:25.488Z,16.48
2023-01-27T08:27:27.604Z,15.02
2023-01-27T08:30:29.705Z,13.00
2023-01-27T08:33:32.355Z,14.68
2023-01-27T08:36:34.524Z,14.05
2023-01-27T08:39:36.947Z,13.50
2023-01-27T08:42:38.960Z,15.73
2023-01-27T08:45:41.025Z,14.45
2023-01-27T08:48:43.549Z,15.57
2023-01-27T08:51:45.617Z,13.43
2023-01-27T08:54:47.538Z,14.70
2023-01-27T08:57:49.577Z,14.90
2023-01-27T09:00:53.829Z,14.35
2023-01-27T09:03:57.188Z,14.63
2023-01-27T09:06:59.086Z,12.88
2023-01-27T09:10:19.686Z,15.32
2023-01-27T09:13:24.932Z,14.88
2023-01-27T09:16:27.279Z,14.30
2023-01-27T09:19:29.530Z,14.02
2023-01-27T09:22:31.743Z,12.77
2023-01-27T09:25:33.844Z,14.02
2023-01-27T09:28:36.816Z,14.52
2023-01-27T09:31:38.911Z,14.63
2023-01-27T09:34:41.094Z,13.30
2023-01-27T09:37:53.178Z,14.38
2023-01-27T09:41:23.027Z,15.02
2023-01-27T09:44:43.784Z,14.65
2023-01-27T09:48:21.933Z,14.00
2023-01-27T09:51:29.482Z,13.98
2023-01-27T09:54:38.619Z,13.75
2023-01-27T09:58:17.830Z,15.35
2023-01-27T10:01:28.785Z,13.80
2023-01-27T10:04:45.948Z,13.93
2023-01-27T10:08:00.431Z,13.40
2023-01-27T10:11:32.028Z,13.57
2023-01-27T10:15:03.028Z,13.55
2023-01-27T10:18:22.243Z,14.25
2023-01-27T10:21:27.191Z,13.80
2023-01-27T10:24:29.340Z,15.25
2023-01-27T10:27:39.410Z,15.93
2023-01-27T10:30:52.181Z,16.67
2023-01-27T10:34:01.982Z,14.57
2023-01-27T10:37:29.189Z,13.57
2023-01-27T10:40:56.335Z,15.55
2023-01-27T10:44:20.007Z,15.45
2023-01-27T10:47:45.094Z,13.88
2023-01-27T10:51:11.704Z,18.30
2023-01-27T10:54:41.541Z,14.63
2023-01-27T11:04:35.004Z,17.65
2023-01-27T11:07:47.603Z,15.20
2023-01-27T11:11:12.619Z,12.02
2023-01-27T11:14:27.577Z,13.23
2023-01-27T11:17:35.072Z,12.85
2023-01-27T11:20:46.275Z,12.02
2023-01-27T11:23:56.189Z,13.05
2023-01-27T11:27:11.292Z,12.82
2023-01-27T11:30:20.817Z,11.88
2023-01-27T11:33:45.034Z,13.65
2023-01-27T11:36:49.997Z,13.68
2023-01-27T11:39:53.246Z,13.55
2023-01-27T11:43:03.417Z,14.70
2023-01-27T11:46:11.926Z,14.43
2023-01-27T11:49:41.902Z,14.25
2023-01-27T11:52:49.346Z,14.05
2023-01-27T11:56:07.517Z,15.02
2023-01-27T11:59:24.779Z,14.25
2023-01-27T12:02:50.271Z,13.05
2023-01-27T12:05:56.622Z,14.77
2023-01-27T12:08:59.349Z,15.73
2023-01-27T12:12:15.089Z,13.65
2023-01-27T12:15:18.769Z,15.85
2023-01-27T12:18:21.071Z,15.05
2023-01-27T12:21:36.066Z,15.05
2023-01-27T12:24:42.414Z,16.63
2023-01-27T12:27:53.595Z,15.82
2023-01-27T12:31:03.419Z,15.27
2023-01-27T12:34:25.978Z,15.77
2023-01-27T12:37:38.130Z,15.23
2023-01-27T12:40:46.561Z,16.02
2023-01-27T12:44:20.069Z,16.20
2023-01-27T12:47:26.091Z,15.95
2023-01-27T12:50:32.160Z,17.13
2023-01-27T12:53:39.571Z,14.45
2023-01-27T12:56:43.189Z,15.15
2023-01-27T12:59:56.324Z,15.70
2023-01-27T13:03:06.756Z,15.05
2023-01-27T13:06:10.555Z,17.77
2023-01-27T13:09:34.562Z,16.98
2023-01-27T13:12:58.950Z,16.73
2023-01-27T13:16:15.705Z,15.85
2023-01-27T13:19:18.573Z,14.15
2023-01-27T13:22:23.799Z,19.45
2023-01-27T13:25:37.769Z,15.20
2023-01-27T13:28:53.152Z,15.82
2023-01-27T13:32:06.018Z,15.70
2023-01-27T13:35:30.282Z,14.23
2023-01-27T13:39:12.502Z,17.77
2023-01-27T13:42:37.225Z,16.17
2023-01-27T13:45:43.509Z,16.85
2023-01-27T13:48:56.313Z,18.73
2023-01-27T13:51:58.445Z,19.42
2023-01-27T13:55:00.565Z,18.75
2023-01-27T13:58:10.562Z,19.55
2023-01-27T14:01:30.880Z,17.73
2023-01-27T14:05:00.869Z,19.67
2023-01-27T14:08:18.753Z,18.20
2023-01-27T14:11:46.986Z,17.08
2023-01-27T14:15:23.475Z,21.85
2023-01-27T14:18:38.039Z,16.00
2023-01-27T14:21:48.419Z,17.30
2023-01-27T14:25:11.041Z,17.27
2023-01-27T14:31:44.283Z,18.30
2023-01-27T14:34:54.584Z,18.00
2023-01-27T14:38:12.001Z,18.83
2023-01-27T14:41:13.936Z,18.98
2023-01-27T14:44:44.055Z,17.52
2023-01-27T14:48:35.858Z,19.60
2023-01-27T14:51:54.005Z,19.58
2023-01-27T14:55:26.312Z,21.65
2023-01-27T14:58:54.131Z,20.48
2023-01-27T15:02:29.337Z,21.48
2023-01-27T15:06:12.652Z,22.05
2023-01-27T15:09:31.391Z,21.30
2023-01-27T15:12:53.567Z,18.48
2023-01-27T15:16:20.789Z,20.77
2023-01-27T15:19:46.672Z,20.08
2023-01-27T15:22:58.138Z,20.23
2023-01-27T15:26:07.862Z,22.85
2023-01-27T15:29:14.939Z,19.73
2023-01-27T15:32:16.999Z,18.75
2023-01-27T15:35:25.135Z,21.17
2023-01-27T15:38:34.226Z,20.67
2023-01-27T15:42:05.941Z,20.58
2023-01-27T15:45:27.739Z,21.92
2023-01-27T15:48:37.255Z,22.25
2023-01-27T15:51:40.827Z,20.08
2023-01-27T15:54:47.758Z,20.45
2023-01-27T15:58:05.868Z,23.23
2023-01-27T16:01:11.733Z,19.20
2023-01-27T16:04:22.276Z,20.85
2023-01-27T16:07:31.986Z,19.85
2023-01-27T16:10:35.958Z,19.35
2023-01-27T16:13:38.327Z,21.17
2023-01-27T16:16:52.687Z,19.35
2023-01-27T16:20:01.120Z,17.60
2023-01-27T16:23:08.125Z,20.00
2023-01-27T16:26:30.140Z,22.17
2023-01-27T16:30:12.387Z,19.63
2023-01-27T16:33:25.207Z,19.88
2023-01-27T16:36:33.447Z,18.67
2023-01-27T16:39:47.666Z,19.52
2023-01-27T16:42:52.659Z,20.73
2023-01-27T16:45:56.071Z,18.48
2023-01-27T16:48:58.880Z,19.13
2023-01-27T16:52:04.635Z,19.65
2023-01-27T16:55:11.237Z,20.50
2023-01-27T16:58:21.114Z,22.05
2023-01-27T17:01:27.369Z,22.02
2023-01-27T17:04:34.289Z,23.08
2023-01-27T17:07:36.461Z,20.15
2023-01-27T17:10:43.220Z,18.98
2023-01-27T17:13:52.677Z,18.30
2023-01-27T17:16:59.216Z,18.15
2023-01-27T17:20:05.713Z,18.25
2023-01-27T17:23:19.538Z,18.42
2023-01-27T17:26:21.805Z,19.63
2023-01-27T17:29:33.490Z,20.83
2023-01-27T17:32:40.483Z,19.38
2023-01-27T17:35:43.296Z,18.63
2023-01-27T17:38:52.082Z,20.50
2023-01-27T17:41:56.151Z,18.73
2023-01-27T17:45:33.067Z,18.15
2023-01-27T17:49:00.075Z,19.08
2023-01-27T17:52:02.777Z,20.13
2023-01-27T17:55:05.339Z,17.50
2023-01-27T17:58:18.557Z,17.65
2023-01-27T18:01:22.580Z,17.90
2023-01-27T18:04:25.489Z,18.50
2023-01-27T18:07:28.560Z,20.52
2023-01-27T18:10:33.492Z,18.55
2023-01-27T18:13:38.959Z,18.45
2023-01-27T18:16:41.035Z,18.35
2023-01-27T18:19:56.797Z,16.40
2023-01-27T18:22:59.785Z,17.42
2023-01-27T18:26:10.847Z,19.13
2023-01-27T18:29:13.050Z,18.35
2023-01-27T18:32:19.790Z,18.00
2023-01-27T18:35:29.327Z,17.73
2023-01-27T18:38:32.292Z,17.85
2023-01-27T18:41:37.998Z,16.00
2023-01-27T18:44:40.119Z,18.40
2023-01-27T18:47:43.969Z,15.35
2023-01-27T18:50:47.753Z,16.20
2023-01-27T18:53:50.266Z,18.38
2023-01-27T18:56:52.612Z,17.73
2023-01-27T18:59:54.686Z,16.17
2023-01-27T19:03:01.815Z,18.58
2023-01-27T19:06:04.252Z,18.67
2023-01-27T19:09:06.374Z,18.42
2023-01-27T19:12:08.513Z,18.08
2023-01-27T19:15:16.292Z,17.02
2023-01-27T19:18:25.050Z,19.40
2023-01-27T19:21:28.735Z,16.33
2023-01-27T19:24:33.031Z,16.30
2023-01-27T19:27:37.522Z,16.88
2023-01-27T19:30:40.403Z,17.20
2023-01-27T19:33:45.414Z,18.05
2023-01-27T19:36:51.146Z,16.00
2023-01-27T19:39:54.444Z,15.57
2023-01-27T19:42:57.164Z,15.65
2023-01-27T19:45:59.442Z,17.77
2023-01-27T19:49:01.702Z,15.98
2023-01-27T19:52:03.860Z,15.82
2023-01-27T19:55:07.665Z,14.52
2023-01-27T19:58:28.480Z,17.67
2023-01-27T20:01:30.851Z,16.13
2023-01-27T20:04:34.422Z,16.88
2023-01-27T20:07:36.625Z,16.60
2023-01-27T20:10:38.859Z,16.85
2023-01-27T20:13:40.912Z,18.42
2023-01-27T20:16:43.286Z,15.70
2023-01-27T20:19:47.804Z,18.08
2023-01-27T20:22:50.757Z,19.25
2023-01-27T20:25:56.713Z,17.02
2023-01-27T20:28:59.721Z,18.13
2023-01-27T20:32:04.299Z,15.98
2023-01-27T20:35:06.571Z,16.08
2023-01-27T20:38:08.644Z,18.08
2023-01-27T20:41:46.958Z,17.65
2023-01-27T20:49:58.362Z,19.17
2023-01-27T20:56:21.003Z,16.92
2023-01-27T20:59:27.050Z,16.42
2023-01-27T21:02:29.983Z,16.95
2023-01-27T21:05:34.580Z,17.02
2023-01-27T21:08:37.141Z,16.45
2023-01-27T21:11:39.180Z,16.42
2023-01-27T21:14:41.335Z,18.83
2023-01-27T21:17:43.351Z,16.73
2023-01-27T21:20:55.242Z,16.33
2023-01-27T21:24:02.577Z,16.55
2023-01-27T21:27:05.040Z,16.38
2023-01-27T21:30:08.095Z,18.85
2023-01-27T21:33:10.541Z,18.20
2023-01-27T21:36:13.353Z,17.92
2023-01-27T21:39:15.984Z,16.67
2023-01-27T21:42:18.062Z,20.25
2023-01-27T21:45:23.429Z,17.65
2023-01-27T21:48:25.455Z,16.98
2023-01-27T21:51:27.537Z,17.85
2023-01-27T21:54:29.657Z,18.35
2023-01-27T21:57:40.127Z,17.45
2023-01-27T22:00:42.222Z,16.88
2023-01-27T22:03:44.385Z,18.02
2023-01-27T22:06:46.754Z,17.20
2023-01-27T22:09:49.619Z,15.70
2023-01-27T22:12:56.594Z,14.63
2023-01-27T22:16:00.365Z,18.70
2023-01-27T22:19:02.344Z,16.15
2023-01-27T22:22:05.055Z,17.42
2023-01-27T22:25:07.739Z,15.05
2023-01-27T22:28:09.836Z,15.93
2023-01-27T22:31:12.019Z,17.00
2023-01-27T22:34:14.221Z,16.52
2023-01-27T22:37:16.440Z,15.98
2023-01-27T22:40:20.105Z,16.88
2023-01-27T22:43:23.016Z,17.98
2023-01-27T22:46:25.655Z,16.00
2023-01-27T22:49:27.751Z,15.32
2023-01-27T22:52:30.548Z,16.75
2023-01-27T22:55:32.920Z,16.67
2023-01-27T22:58:36.315Z,16.95
2023-01-27T23:01:40.211Z,16.45
2023-01-27T23:04:42.727Z,18.25
2023-01-27T23:07:47.446Z,17.98
2023-01-27T23:10:51.173Z,15.32
2023-01-27T23:13:54.699Z,15.55
2023-01-27T23:16:58.828Z,18.05
2023-01-27T23:20:02.555Z,16.05
2023-01-27T23:23:08.241Z,15.98
2023-01-27T23:26:11.461Z,18.08
2023-01-27T23:29:24.202Z,15.95
2023-01-27T23:32:29.169Z,15.38
2023-01-27T23:35:32.007Z,16.85
2023-01-27T23:38:35.860Z,18.85
2023-01-27T23:41:40.631Z,16.55
2023-01-27T23:44:42.728Z,15.68
2023-01-27T23:47:44.737Z,17.00
2023-01-27T23:50:49.111Z,18.40
2023-01-27T23:53:51.968Z,16.75
2023-01-27T23:56:57.093Z,17.85
2023-01-27T23:59:59.916Z,17.42
